createdAt,value
2024-01-18T00:01:13.351Z,20.13
2024-01-18T00:04:01.809Z,19.33
2024-01-18T00:06:47.575Z,20.27
2024-01-18T00:09:33.129Z,19.73
2024-01-18T00:12:18.774Z,19.70
2024-01-18T00:15:04.808Z,20.37
2024-01-18T00:17:50.601Z,19.17
2024-01-18T00:20:36.209Z,19.47
2024-01-18T00:23:21.859Z,19.97
2024-01-18T00:26:07.643Z,19.33
2024-01-18T00:28:53.020Z,19.43
2024-01-18T00:31:38.425Z,19.23
2024-01-18T00:34:23.776Z,20.23
2024-01-18T00:37:09.320Z,20.77
2024-01-18T00:39:54.969Z,20.43
2024-01-18T00:42:40.729Z,20.47
2024-01-18T00:45:26.296Z,21.13
2024-01-18T00:48:11.641Z,19.93
2024-01-18T00:50:57.989Z,18.37
2024-01-18T00:53:43.645Z,18.27
2024-01-18T00:56:29.308Z,15.93
2024-01-18T00:59:14.608Z,15.37
2024-01-18T01:02:01.166Z,15.03
2024-01-18T01:04:47.509Z,15.37
2024-01-18T01:07:32.887Z,13.73
2024-01-18T01:10:18.400Z,14.47
2024-01-18T01:13:03.584Z,14.27
2024-01-18T01:15:49.388Z,13.90
2024-01-18T01:18:34.752Z,13.80
2024-01-18T01:21:20.633Z,14.07
2024-01-18T01:24:06.356Z,14.30
2024-01-18T01:26:51.788Z,13.57
2024-01-18T01:29:37.668Z,14.47
2024-01-18T01:32:22.929Z,14.03
2024-01-18T01:35:08.626Z,13.30
2024-01-18T01:37:54.282Z,13.63
2024-01-18T01:40:39.801Z,13.63
2024-01-18T01:43:25.617Z,14.30
2024-01-18T01:46:10.768Z,13.57
2024-01-18T01:49:02.521Z,13.43
2024-01-18T01:51:50.933Z,13.80
2024-01-18T01:54:36.501Z,13.13
2024-01-18T01:57:22.212Z,13.10
2024-01-18T02:00:09.335Z,14.40
2024-01-18T02:02:58.517Z,14.07
2024-01-18T02:05:45.811Z,13.57
2024-01-18T02:08:31.856Z,14.70
2024-01-18T02:11:17.550Z,13.57
2024-01-18T02:14:04.323Z,13.40
2024-01-18T02:16:50.064Z,12.93
2024-01-18T02:19:35.939Z,13.97
2024-01-18T02:22:25.949Z,14.57
2024-01-18T02:25:21.627Z,13.40
2024-01-18T02:28:06.760Z,12.73
2024-01-18T02:30:51.941Z,13.83
2024-01-18T02:33:37.442Z,13.70
2024-01-18T02:36:22.786Z,13.27
2024-01-18T02:39:08.250Z,13.33
2024-01-18T02:41:53.807Z,12.30
2024-01-18T02:44:39.331Z,12.97
2024-01-18T02:47:28.954Z,13.50
2024-01-18T02:50:14.456Z,13.73
2024-01-18T02:52:59.720Z,13.27
2024-01-18T02:55:45.195Z,13.13
2024-01-18T02:58:30.833Z,13.13
2024-01-18T03:01:16.563Z,13.60
2024-01-18T03:04:02.256Z,12.90
2024-01-18T03:06:48.183Z,13.03
2024-01-18T03:09:33.840Z,12.63
2024-01-18T03:12:19.213Z,13.73
2024-01-18T03:15:10.231Z,13.43
2024-01-18T03:17:55.947Z,12.97
2024-01-18T03:20:41.111Z,12.50
2024-01-18T03:23:26.931Z,12.80
2024-01-18T03:26:12.379Z,12.87
2024-01-18T03:28:57.981Z,13.33
2024-01-18T03:31:43.269Z,12.90
2024-01-18T03:34:28.739Z,12.77
2024-01-18T03:37:14.270Z,12.50
2024-01-18T03:39:59.488Z,11.63
2024-01-18T03:42:44.669Z,12.80
2024-01-18T03:45:30.267Z,12.00
2024-01-18T03:48:15.592Z,11.60
2024-01-18T03:51:00.890Z,12.03
2024-01-18T03:53:46.256Z,12.33
2024-01-18T03:56:31.604Z,11.60
2024-01-18T03:59:17.160Z,12.10
2024-01-18T04:02:02.455Z,12.43
2024-01-18T04:04:48.313Z,12.07
2024-01-18T04:07:33.515Z,12.70
2024-01-18T04:10:19.109Z,12.67
2024-01-18T04:13:04.759Z,12.13
2024-01-18T04:15:50.283Z,12.20
2024-01-18T04:18:36.075Z,12.20
2024-01-18T04:21:21.486Z,13.70
2024-01-18T04:24:06.931Z,12.90
2024-01-18T04:26:52.144Z,12.93
2024-01-18T04:29:37.422Z,12.50
2024-01-18T04:32:22.385Z,12.07
2024-01-18T04:35:08.226Z,12.37
2024-01-18T04:37:53.878Z,12.77
2024-01-18T04:40:39.531Z,13.37
2024-01-18T04:43:25.113Z,13.13
2024-01-18T04:46:10.907Z,13.37
2024-01-18T04:48:56.490Z,13.10
2024-01-18T04:51:42.093Z,13.07
2024-01-18T04:54:27.554Z,12.97
2024-01-18T04:57:12.939Z,13.83
2024-01-18T04:59:58.800Z,13.13
2024-01-18T05:02:44.324Z,12.90
2024-01-18T05:05:30.383Z,13.50
2024-01-18T05:08:15.756Z,12.83
2024-01-18T05:11:01.415Z,13.70
2024-01-18T05:13:46.985Z,13.53
2024-01-18T05:16:32.763Z,13.03
2024-01-18T05:19:19.649Z,12.93
2024-01-18T05:22:05.525Z,13.50
2024-01-18T05:24:50.774Z,13.33
2024-01-18T05:27:36.535Z,14.73
2024-01-18T05:30:21.655Z,14.27
2024-01-18T05:33:07.349Z,14.03
2024-01-18T05:35:53.591Z,13.97
2024-01-18T05:38:41.691Z,13.57
2024-01-18T05:41:27.497Z,12.83
2024-01-18T05:44:12.904Z,13.53
2024-01-18T05:46:58.227Z,14.20
2024-01-18T05:49:44.372Z,15.90
2024-01-18T05:52:29.610Z,15.20
2024-01-18T05:55:14.857Z,14.57
2024-01-18T05:58:00.133Z,13.97
2024-01-18T06:00:45.574Z,13.90
2024-01-18T06:03:31.297Z,14.43
2024-01-18T06:06:17.201Z,16.73
2024-01-18T06:09:03.125Z,15.23
2024-01-18T06:11:48.929Z,17.03
2024-01-18T06:14:35.424Z,15.53
2024-01-18T06:17:20.905Z,19.57
2024-01-18T06:20:07.358Z,20.10
2024-01-18T06:22:52.764Z,19.80
2024-01-18T06:25:38.259Z,16.70
2024-01-18T06:28:23.818Z,15.23
2024-01-18T06:31:09.126Z,14.97
2024-01-18T06:33:54.897Z,14.80
2024-01-18T06:36:40.385Z,15.77
2024-01-18T06:39:26.040Z,15.40
2024-01-18T06:42:11.409Z,14.63
2024-01-18T06:44:56.785Z,14.83
2024-01-18T06:47:42.383Z,14.33
2024-01-18T06:50:27.871Z,14.60
2024-01-18T06:53:13.179Z,14.30
2024-01-18T06:55:58.544Z,13.67
2024-01-18T06:58:44.630Z,13.80
2024-01-18T07:01:30.235Z,15.17
2024-01-18T07:04:15.667Z,13.60
2024-01-18T07:07:01.715Z,14.03
2024-01-18T07:09:47.381Z,14.00
2024-01-18T07:12:35.396Z,13.17
2024-01-18T07:15:21.025Z,13.07
2024-01-18T07:18:06.833Z,13.53
2024-01-18T07:20:52.138Z,13.77
2024-01-18T07:23:37.588Z,13.23
2024-01-18T07:26:23.233Z,13.67
2024-01-18T07:29:10.113Z,13.63
2024-01-18T07:31:55.592Z,13.43
2024-01-18T07:34:41.273Z,14.33
2024-01-18T07:37:26.263Z,14.67
2024-01-18T07:40:12.098Z,13.90
2024-01-18T07:42:57.487Z,14.13
2024-01-18T07:45:43.141Z,15.67
2024-01-18T07:48:31.399Z,14.17
2024-01-18T07:51:16.672Z,14.43
2024-01-18T07:54:01.858Z,14.87
2024-01-18T07:56:47.399Z,14.60
2024-01-18T07:59:33.019Z,14.27
2024-01-18T08:02:18.199Z,14.30
2024-01-18T08:05:03.781Z,13.83
2024-01-18T08:07:49.873Z,14.10
2024-01-18T08:10:35.030Z,14.30
2024-01-18T08:13:20.580Z,14.13
2024-01-18T08:16:05.940Z,14.83
2024-01-18T08:18:51.630Z,13.83
2024-01-18T08:21:45.332Z,13.57
2024-01-18T08:24:30.839Z,13.53
2024-01-18T08:27:16.700Z,13.90
2024-01-18T08:30:02.204Z,13.20
2024-01-18T08:32:47.517Z,12.70
2024-01-18T08:35:33.985Z,14.20
2024-01-18T08:38:20.003Z,12.33
2024-01-18T08:41:05.492Z,13.00
2024-01-18T08:43:51.154Z,12.60
2024-01-18T08:46:36.498Z,11.47
2024-01-18T08:49:21.872Z,13.47
2024-01-18T08:52:07.599Z,13.60
2024-01-18T08:54:53.491Z,15.70
2024-01-18T08:57:39.187Z,21.47
2024-01-18T09:00:24.591Z,16.77
2024-01-18T09:03:10.041Z,13.73
2024-01-18T09:05:57.048Z,12.87
2024-01-18T09:08:42.490Z,19.27
2024-01-18T09:11:27.931Z,13.97
2024-01-18T09:14:13.585Z,12.00
2024-01-18T09:16:58.956Z,11.50
2024-01-18T09:19:44.683Z,11.73
2024-01-18T09:22:30.153Z,11.20
2024-01-18T09:25:15.213Z,13.23
2024-01-18T09:28:00.596Z,12.03
2024-01-18T09:30:45.943Z,11.80
2024-01-18T09:33:31.674Z,11.93
2024-01-18T09:36:17.453Z,14.57
2024-01-18T09:39:02.893Z,16.33
2024-01-18T09:41:55.797Z,14.90
2024-01-18T09:44:46.396Z,17.47
2024-01-18T09:47:31.789Z,15.87
2024-01-18T09:50:20.359Z,14.27
2024-01-18T09:53:06.113Z,14.43
2024-01-18T09:55:54.161Z,12.67
2024-01-18T09:58:39.836Z,14.50
2024-01-18T10:01:25.167Z,13.43
2024-01-18T10:04:13.020Z,12.40
2024-01-18T10:07:00.296Z,12.83
2024-01-18T10:09:47.516Z,11.83
2024-01-18T10:12:32.817Z,13.67
2024-01-18T10:15:34.852Z,14.77
2024-01-18T10:18:20.359Z,12.57
2024-01-18T10:21:06.288Z,11.53
2024-01-18T10:23:53.609Z,11.30
2024-01-18T10:26:38.815Z,11.13
2024-01-18T10:29:24.618Z,10.90
2024-01-18T10:32:09.821Z,11.03
2024-01-18T10:34:55.443Z,10.87
2024-01-18T10:37:40.564Z,10.87
2024-01-18T10:40:25.915Z,11.50
2024-01-18T10:43:13.129Z,12.00
2024-01-18T10:46:00.055Z,10.77
2024-01-18T10:48:47.743Z,11.57
2024-01-18T10:51:33.030Z,11.53
2024-01-18T10:54:25.999Z,11.33
2024-01-18T10:57:17.946Z,10.73
2024-01-18T11:00:03.430Z,10.87
2024-01-18T11:02:49.205Z,10.77
2024-01-18T11:05:35.285Z,10.23
2024-01-18T11:08:20.819Z,10.77
2024-01-18T11:11:07.374Z,9.77
2024-01-18T11:13:53.060Z,10.57
2024-01-18T11:16:41.224Z,9.27
2024-01-18T11:19:46.715Z,11.17
2024-01-18T11:22:32.363Z,9.47
2024-01-18T11:25:28.701Z,10.00
2024-01-18T11:28:23.389Z,10.10
2024-01-18T11:31:08.873Z,9.53
2024-01-18T11:33:55.826Z,10.00
2024-01-18T11:36:47.624Z,9.27
2024-01-18T11:39:47.934Z,10.00
2024-01-18T11:42:34.291Z,9.87
2024-01-18T11:45:20.206Z,9.30
2024-01-18T11:48:06.134Z,6.80
2024-01-18T11:50:51.525Z,8.27
2024-01-18T11:53:38.182Z,8.03
2024-01-18T11:56:24.827Z,8.57
2024-01-18T11:59:10.461Z,8.03
2024-01-18T12:01:55.912Z,8.90
2024-01-18T12:04:41.612Z,8.53
2024-01-18T12:07:27.399Z,8.00
2024-01-18T12:10:13.104Z,6.70
2024-01-18T12:12:59.885Z,7.00
2024-01-18T12:15:46.148Z,9.03
2024-01-18T12:18:41.849Z,8.50
2024-01-18T12:21:27.129Z,7.03
2024-01-18T12:24:12.688Z,7.37
2024-01-18T12:26:58.302Z,8.43
2024-01-18T12:29:44.007Z,8.57
2024-01-18T12:32:30.007Z,9.93
2024-01-18T12:35:15.640Z,10.60
2024-01-18T12:38:03.568Z,10.70
2024-01-18T12:40:49.603Z,10.30
2024-01-18T12:43:35.104Z,11.43
2024-01-18T12:46:20.972Z,11.47
2024-01-18T12:49:07.198Z,10.67
2024-01-18T12:51:58.708Z,12.97
2024-01-18T12:54:44.616Z,11.70
2024-01-18T12:57:30.553Z,13.20
2024-01-18T13:00:16.644Z,13.03
2024-01-18T13:03:15.377Z,14.70
2024-01-18T13:06:01.102Z,14.77
2024-01-18T13:08:46.692Z,14.90
2024-01-18T13:11:33.084Z,14.43
2024-01-18T13:14:19.118Z,15.10
2024-01-18T13:17:05.525Z,14.50
2024-01-18T13:19:54.602Z,14.30
2024-01-18T13:22:40.260Z,13.97
2024-01-18T13:25:26.026Z,13.33
2024-01-18T13:28:11.631Z,14.50
2024-01-18T13:30:57.392Z,13.47
2024-01-18T13:33:42.629Z,13.03
2024-01-18T13:36:28.282Z,11.87
2024-01-18T13:39:13.865Z,11.47
2024-01-18T13:41:59.110Z,12.70
2024-01-18T13:44:44.756Z,12.90
2024-01-18T13:47:30.413Z,13.30
2024-01-18T13:50:16.169Z,14.40
2024-01-18T13:53:01.396Z,14.17
2024-01-18T13:55:47.371Z,14.20
2024-01-18T13:58:33.190Z,13.77
2024-01-18T14:01:18.724Z,12.70
2024-01-18T14:04:04.347Z,11.77
2024-01-18T14:06:49.991Z,11.80
2024-01-18T14:09:35.222Z,10.90
2024-01-18T14:12:20.863Z,11.07
2024-01-18T14:15:07.368Z,11.10
2024-01-18T14:17:53.055Z,13.20
2024-01-18T14:20:38.760Z,13.10
2024-01-18T14:23:24.114Z,13.37
2024-01-18T14:26:09.870Z,13.83
2024-01-18T14:28:55.112Z,12.47
2024-01-18T14:31:40.400Z,11.27
2024-01-18T14:34:26.101Z,11.70
2024-01-18T14:37:13.020Z,10.63
2024-01-18T14:39:58.871Z,10.73
2024-01-18T14:42:44.310Z,11.00
2024-01-18T14:45:29.845Z,10.37
2024-01-18T14:48:16.776Z,9.73
2024-01-18T14:51:02.321Z,10.23
2024-01-18T14:53:48.011Z,9.50
2024-01-18T14:56:33.470Z,10.13
2024-01-18T14:59:18.869Z,10.47
2024-01-18T15:02:04.894Z,10.37
2024-01-18T15:04:50.243Z,10.80
2024-01-18T15:07:35.655Z,8.93
2024-01-18T15:10:21.066Z,10.47
2024-01-18T15:13:06.391Z,11.90
2024-01-18T15:15:52.555Z,15.07
2024-01-18T15:18:37.989Z,16.73
2024-01-18T15:21:23.804Z,14.47
2024-01-18T15:24:08.952Z,12.47
2024-01-18T15:26:54.597Z,11.27
2024-01-18T15:29:40.237Z,9.97
2024-01-18T15:32:25.765Z,9.87
2024-01-18T15:35:11.965Z,9.50
2024-01-18T15:37:57.915Z,9.90
2024-01-18T15:40:43.766Z,10.17
2024-01-18T15:43:30.027Z,9.77
2024-01-18T15:46:15.336Z,9.40
2024-01-18T15:49:00.781Z,11.50
2024-01-18T15:51:46.082Z,17.20
2024-01-18T15:54:31.520Z,12.17
2024-01-18T15:57:16.997Z,11.53
2024-01-18T16:00:02.503Z,10.60
2024-01-18T16:02:49.806Z,10.33
2024-01-18T16:05:35.758Z,10.33
2024-01-18T16:08:21.185Z,10.80
2024-01-18T16:11:07.495Z,11.53
2024-01-18T16:13:52.857Z,10.77
2024-01-18T16:16:39.090Z,11.73
2024-01-18T16:19:24.556Z,11.23
2024-01-18T16:22:10.068Z,12.73
2024-01-18T16:24:55.992Z,12.17
2024-01-18T16:27:43.530Z,12.37
2024-01-18T16:30:31.491Z,12.40
2024-01-18T16:33:17.622Z,12.33
2024-01-18T16:36:03.339Z,12.63
2024-01-18T16:38:48.621Z,11.57
2024-01-18T16:41:34.293Z,12.07
2024-01-18T16:44:19.528Z,12.63
2024-01-18T16:47:05.118Z,13.13
2024-01-18T16:49:50.723Z,12.47
2024-01-18T16:52:36.084Z,12.73
2024-01-18T16:55:21.605Z,21.80
2024-01-18T16:58:07.217Z,19.17
2024-01-18T17:00:54.772Z,15.67
2024-01-18T17:03:40.644Z,16.60
2024-01-18T17:06:26.535Z,15.37
2024-01-18T17:09:11.916Z,14.63
2024-01-18T17:11:57.347Z,13.53
2024-01-18T17:14:43.489Z,13.60
2024-01-18T17:17:29.726Z,14.17
2024-01-18T17:20:15.181Z,15.80
2024-01-18T17:23:01.430Z,15.00
2024-01-18T17:25:47.075Z,15.83
2024-01-18T17:28:32.394Z,16.50
2024-01-18T17:31:17.966Z,17.53
2024-01-18T17:34:03.534Z,17.70
2024-01-18T17:36:49.895Z,17.77
2024-01-18T17:39:35.473Z,16.63
2024-01-18T17:42:20.760Z,15.73
2024-01-18T17:45:06.823Z,15.70
2024-01-18T17:47:53.725Z,14.70
2024-01-18T17:50:42.267Z,15.03
2024-01-18T17:53:29.353Z,14.43
2024-01-18T17:56:14.953Z,17.83
2024-01-18T17:59:00.406Z,17.00
2024-01-18T18:01:45.837Z,18.17
2024-01-18T18:04:31.354Z,22.10
2024-01-18T18:07:16.929Z,24.33
2024-01-18T18:10:03.950Z,20.47
2024-01-18T18:12:49.540Z,17.70
2024-01-18T18:15:41.868Z,18.57
2024-01-18T18:18:31.497Z,17.13
2024-01-18T18:21:17.271Z,17.57
2024-01-18T18:24:02.601Z,12.27
2024-01-18T18:26:48.072Z,17.70
2024-01-18T18:29:33.629Z,17.40
2024-01-18T18:32:18.949Z,18.03
2024-01-18T18:35:04.928Z,17.33
2024-01-18T18:37:50.425Z,16.97
2024-01-18T18:40:35.988Z,18.07
2024-01-18T18:43:22.107Z,17.43
2024-01-18T18:46:07.724Z,16.53
2024-01-18T18:48:53.087Z,16.47
2024-01-18T18:51:38.817Z,15.83
2024-01-18T18:54:24.181Z,16.00
2024-01-18T18:57:09.598Z,17.57
2024-01-18T18:59:56.134Z,16.33
2024-01-18T19:02:41.495Z,15.87
2024-01-18T19:05:27.238Z,16.20
2024-01-18T19:08:12.879Z,16.17
2024-01-18T19:10:58.220Z,20.47
2024-01-18T19:13:43.770Z,19.63
2024-01-18T19:16:30.914Z,18.27
2024-01-18T19:19:17.029Z,22.67
2024-01-18T19:22:02.493Z,20.50
2024-01-18T19:24:49.466Z,19.30
2024-01-18T19:27:35.254Z,17.60
2024-01-18T19:30:20.991Z,16.37
2024-01-18T19:33:10.768Z,16.93
2024-01-18T19:36:07.222Z,16.27
2024-01-18T19:38:53.157Z,16.63
2024-01-18T19:41:38.477Z,16.03
2024-01-18T19:44:23.975Z,16.40
2024-01-18T19:47:09.620Z,18.00
2024-01-18T19:49:55.010Z,17.77
2024-01-18T19:52:40.368Z,17.80
2024-01-18T19:55:26.800Z,17.80
2024-01-18T19:58:12.080Z,18.03
2024-01-18T20:00:57.384Z,17.73
2024-01-18T20:03:42.976Z,18.33
2024-01-18T20:06:28.617Z,18.37
2024-01-18T20:09:13.797Z,18.03
2024-01-18T20:12:00.739Z,18.40
2024-01-18T20:14:46.516Z,18.30
2024-01-18T20:17:31.695Z,18.23
2024-01-18T20:20:18.147Z,19.90
2024-01-18T20:23:04.301Z,19.07
2024-01-18T20:25:49.750Z,19.30
2024-01-18T20:28:36.016Z,19.33
2024-01-18T20:31:21.386Z,19.43
2024-01-18T20:34:06.737Z,19.33
2024-01-18T20:36:52.211Z,18.97
2024-01-18T20:39:37.557Z,19.10
2024-01-18T20:42:23.151Z,19.23
2024-01-18T20:45:10.041Z,20.03
2024-01-18T20:47:55.448Z,20.27
2024-01-18T20:50:40.924Z,19.90
2024-01-18T20:53:26.287Z,20.53
2024-01-18T20:56:11.556Z,20.70
2024-01-18T20:58:57.220Z,20.83
2024-01-18T21:01:43.528Z,20.33
2024-01-18T21:04:29.125Z,21.67
2024-01-18T21:07:14.552Z,19.77
2024-01-18T21:10:00.387Z,37.33
2024-01-18T21:12:46.836Z,22.73
2024-01-18T21:15:32.260Z,21.20
2024-01-18T21:18:18.728Z,21.47
2024-01-18T21:21:04.456Z,21.73
2024-01-18T21:23:50.187Z,20.87
2024-01-18T21:26:35.318Z,21.87
2024-01-18T21:29:20.778Z,22.90
2024-01-18T21:32:06.216Z,21.23
2024-01-18T21:34:51.603Z,22.17
2024-01-18T21:37:37.342Z,23.03
2024-01-18T21:40:22.530Z,22.57
2024-01-18T21:43:08.240Z,21.33
2024-01-18T21:45:53.870Z,21.77
2024-01-18T21:48:39.647Z,21.83
2024-01-18T21:51:25.316Z,22.33
2024-01-18T21:54:11.257Z,22.53
2024-01-18T21:56:56.945Z,23.03
2024-01-18T21:59:45.835Z,30.57
2024-01-18T22:02:30.971Z,22.73
2024-01-18T22:05:16.381Z,23.53
2024-01-18T22:08:02.617Z,22.90
2024-01-18T22:10:48.343Z,21.77
2024-01-18T22:13:33.722Z,21.27
2024-01-18T22:16:19.352Z,21.90
2024-01-18T22:19:05.495Z,20.97
2024-01-18T22:21:53.212Z,21.53
2024-01-18T22:24:40.091Z,21.63
2024-01-18T22:27:25.249Z,20.47
2024-01-18T22:30:11.132Z,22.40
2024-01-18T22:32:56.833Z,21.27
2024-01-18T22:35:42.961Z,22.17
2024-01-18T22:38:28.759Z,21.60
2024-01-18T22:41:14.516Z,23.17
2024-01-18T22:44:00.019Z,22.17
2024-01-18T22:46:45.431Z,23.07
2024-01-18T22:49:31.793Z,22.93
2024-01-18T22:52:17.224Z,21.43
2024-01-18T22:55:02.692Z,21.57
2024-01-18T22:57:47.869Z,22.00
2024-01-18T23:00:33.352Z,21.57
2024-01-18T23:03:18.728Z,20.50
2024-01-18T23:08:51.097Z,20.20
2024-01-18T23:11:37.258Z,19.50
2024-01-18T23:14:22.598Z,20.57
2024-01-18T23:17:08.091Z,19.67
2024-01-18T23:19:53.307Z,19.80
2024-01-18T23:22:39.155Z,21.50
2024-01-18T23:25:24.792Z,20.57
2024-01-18T23:28:09.855Z,21.40
2024-01-18T23:30:55.552Z,19.83
2024-01-18T23:33:40.817Z,20.90
2024-01-18T23:36:26.053Z,21.47
2024-01-18T23:39:12.124Z,21.27
2024-01-18T23:41:57.394Z,22.00
2024-01-18T23:44:43.131Z,20.67
2024-01-18T23:47:28.468Z,21.47
2024-01-18T23:50:14.271Z,23.87
2024-01-18T23:52:59.535Z,24.17
2024-01-18T23:55:45.067Z,24.23
2024-01-18T23:58:30.368Z,25.80
